Sirius — WDA2145 — position and weather

sailwx.info

Track history (hours):
 
Tides and Currents Weather Stations Pressure Air Temp Water Temp Dewpoint Dewpoint Depression Visibility Wind Speed Wind Dir Waves Ship Positions

Sirius

Owner: TISBURY TOWING AND TRANSPORTATION INC, TISBURY, MA. More information available from US FCC via Universal Licensing System and Coast Guard Vessel Documentation Center.

Last reported at 2014-Nov-25 22:33 UTC. Time now 2014-Nov-28 05:51 UTC.
Position N 41°30' W 070°53'.

Length 19 m; draft 1.9 m.

Type: Towing. MMSI: 367181040.

Date/timePositionNaut miles runAvg speedWind from/ knotsBaromVisibWave heightAir tempDewpointWater temp
2014-Nov-25 22:33N 41°30' W 070°53'5 5.3
2014-Nov-25 21:34N 41°25' W 070°55'3 2.7
2014-Nov-25 20:34N 41°27' W 070°52'6 6.2
2014-Nov-25 19:33N 41°27' W 070°44'6 6.3
2014-Nov-25 18:33N 41°28' W 070°36'1 0.4
2014-Nov-25 17:06N 41°27' W 070°36'0 0.0
2014-Nov-25 16:33N 41°27' W 070°36'0 0.0
2014-Nov-25 15:33N 41°27' W 070°36'0 0.0
2014-Nov-25 14:33N 41°27' W 070°36'0 0.0
2014-Nov-25 13:33N 41°27' W 070°36'0 0.0
2014-Nov-25 07:24N 41°27' W 070°36'0 0.0
2014-Nov-25 04:24N 41°27' W 070°36'0 0.0
2014-Nov-25 03:27N 41°27' W 070°36'0 0.0
2014-Nov-24 23:06N 41°27' W 070°36'0 0.0
2014-Nov-24 20:24N 41°27' W 070°36'0 0.0
2014-Nov-24 19:18N 41°27' W 070°36'0 0.0
2014-Nov-24 08:15N 41°27' W 070°36'0 0.0
2014-Nov-24 06:33N 41°27' W 070°36'0 0.0
2014-Nov-24 05:33N 41°27' W 070°36'0 0.0
2014-Nov-24 04:33N 41°27' W 070°36'0 0.0
2014-Nov-24 03:33N 41°27' W 070°36'0 0.0
2014-Nov-24 02:33N 41°27' W 070°36'0 0.0
2014-Nov-24 01:24N 41°27' W 070°36'0 0.0
2014-Nov-24 00:30N 41°27' W 070°36'0 0.0
2014-Nov-23 23:33N 41°27' W 070°36'0 0.0
2014-Nov-23 22:33N 41°27' W 070°36'0 0.0
2014-Nov-23 21:33N 41°27' W 070°36'0 0.0
2014-Nov-23 20:33N 41°27' W 070°36'0 0.0
2014-Nov-23 19:27N 41°27' W 070°36'0 0.0
2014-Nov-23 18:33N 41°27' W 070°36'0 0.0
2014-Nov-23 16:09N 41°27' W 070°36'  
2014-Nov-18 23:16N 41°33' W 070°49'9 0.4
2014-Nov-17 22:28N 41°28' W 070°39'7 8.1
2014-Nov-17 21:34N 41°26' W 070°48'6 5.7
2014-Nov-17 20:34N 41°25' W 070°55'0 0.2
2014-Nov-17 19:26N 41°25' W 070°55'0 0.0
2014-Nov-17 18:14N 41°25' W 070°55'0 0.0
2014-Nov-17 17:30N 41°25' W 070°55'15 1.0
2014-Nov-17 02:29N 41°27' W 070°36'  
Track history (hours):
 
Tides and Currents Weather Stations Pressure Air Temp Water Temp Dewpoint Dewpoint Depression Visibility Wind Speed Wind Dir Waves Ship Positions

Sirius

Owner: TISBURY TOWING AND TRANSPORTATION INC, TISBURY, MA. More information available from US FCC via Universal Licensing System and Coast Guard Vessel Documentation Center.

Last reported at 2014-Nov-25 22:33 UTC. Time now 2014-Nov-28 05:51 UTC.
Position N 41°30' W 070°53'.

Length 19 m; draft 1.9 m.

Type: Towing. MMSI: 367181040.

Date/timePositionNaut miles runAvg speedWind from/ knotsBaromVisibWave heightAir tempDewpointWater temp
2014-Nov-25 22:33N 41°30' W 070°53'5 5.3
2014-Nov-25 21:34N 41°25' W 070°55'3 2.7
2014-Nov-25 20:34N 41°27' W 070°52'6 6.2
2014-Nov-25 19:33N 41°27' W 070°44'6 6.3
2014-Nov-25 18:33N 41°28' W 070°36'1 0.4
2014-Nov-25 17:06N 41°27' W 070°36'0 0.0
2014-Nov-25 16:33N 41°27' W 070°36'0 0.0
2014-Nov-25 15:33N 41°27' W 070°36'0 0.0
2014-Nov-25 14:33N 41°27' W 070°36'0 0.0
2014-Nov-25 13:33N 41°27' W 070°36'0 0.0
2014-Nov-25 07:24N 41°27' W 070°36'0 0.0
2014-Nov-25 04:24N 41°27' W 070°36'0 0.0
2014-Nov-25 03:27N 41°27' W 070°36'0 0.0
2014-Nov-24 23:06N 41°27' W 070°36'0 0.0
2014-Nov-24 20:24N 41°27' W 070°36'0 0.0
2014-Nov-24 19:18N 41°27' W 070°36'0 0.0
2014-Nov-24 08:15N 41°27' W 070°36'0 0.0
2014-Nov-24 06:33N 41°27' W 070°36'0 0.0
2014-Nov-24 05:33N 41°27' W 070°36'0 0.0
2014-Nov-24 04:33N 41°27' W 070°36'0 0.0
2014-Nov-24 03:33N 41°27' W 070°36'0 0.0
2014-Nov-24 02:33N 41°27' W 070°36'0 0.0
2014-Nov-24 01:24N 41°27' W 070°36'0 0.0
2014-Nov-24 00:30N 41°27' W 070°36'0 0.0
2014-Nov-23 23:33N 41°27' W 070°36'0 0.0
2014-Nov-23 22:33N 41°27' W 070°36'0 0.0
2014-Nov-23 21:33N 41°27' W 070°36'0 0.0
2014-Nov-23 20:33N 41°27' W 070°36'0 0.0
2014-Nov-23 19:27N 41°27' W 070°36'0 0.0
2014-Nov-23 18:33N 41°27' W 070°36'0 0.0
2014-Nov-23 16:09N 41°27' W 070°36'  
2014-Nov-18 23:16N 41°33' W 070°49'9 0.4
2014-Nov-17 22:28N 41°28' W 070°39'7 8.1
2014-Nov-17 21:34N 41°26' W 070°48'6 5.7
2014-Nov-17 20:34N 41°25' W 070°55'0 0.2
2014-Nov-17 19:26N 41°25' W 070°55'0 0.0
2014-Nov-17 18:14N 41°25' W 070°55'0 0.0
2014-Nov-17 17:30N 41°25' W 070°55'15 1.0
2014-Nov-17 02:29N 41°27' W 070°36'  

Dump ship's entire track history